This is the latest recevied weather packets stored in our database for station/object K4CRS-13. If no packets are shown the sender has not sent any weather packets the latest 10 day(s).
| Time | Temp. | Humidity | Pressure | Rain* | Wind** | Luminosity | Snow |
|---|---|---|---|---|---|---|---|
| 1787584980 | 29.44° C | 56% | 1052.8 hPa | 0 mm | - | 611 W/m² | - |
| 1787584674 | 30° C | 57% | 1052.9 hPa | 0 mm | - | 602 W/m² | - |
| 1787584372 | 30° C | 60% | 1052.6 hPa | 0 mm | - | 587 W/m² | - |
| 1787584072 | 30° C | 59% | 1052.4 hPa | 0 mm | - | 575 W/m² | - |
| 1787583768 | 29.44° C | 59% | 1052.4 hPa | 0 mm | - | 565 W/m² | - |
| 1787583468 | 30° C | 57% | 1052.4 hPa | 0 mm | - | 558 W/m² | - |
| 1787583166 | 29.44° C | 57% | 1052.5 hPa | 0 mm | - | 547 W/m² | - |
| 1787582862 | 30° C | 58% | 1052.3 hPa | 0 mm | - | 496 W/m² | - |
| 1787582557 | 28.89° C | 60% | 1052.3 hPa | 0 mm | - | 524 W/m² | - |
| 1787582257 | 29.44° C | 58% | 1052.2 hPa | 0 mm | - | 565 W/m² | - |
| 1787581957 | 28.89° C | 63% | 1051.9 hPa | 0 mm | - | 340 W/m² | - |
| 1787581653 | 28.89° C | 61% | 1052 hPa | 0 mm | - | 548 W/m² | - |
| 1787581348 | 28.89° C | 63% | 1051.9 hPa | 0 mm | - | 511 W/m² | - |
| 1787581048 | 28.33° C | 62% | 1052.3 hPa | 0 mm | - | 474 W/m² | - |
| 1787580744 | 28.33° C | 66% | 1052 hPa | 0 mm | - | 369 W/m² | - |
| 1787580439 | 27.78° C | 67% | 1052.1 hPa | 0 mm | - | 434 W/m² | - |
| 1787580134 | 27.22° C | 67% | 1052 hPa | 0 mm | - | 424 W/m² | - |
| 1787579834 | 27.22° C | 69% | 1051.8 hPa | 0 mm | - | 322 W/m² | - |
| 1787579529 | 26.67° C | 74% | 1051.8 hPa | 0 mm | - | 221 W/m² | - |
| 1787579224 | 26.67° C | 72% | 1051.9 hPa | 0 mm | - | 185 W/m² | - |
| 1787578919 | 26.67° C | 71% | 1052.2 hPa | 0 mm | - | 185 W/m² | - |
| 1787578615 | 26.67° C | 69% | 1051.8 hPa | 0 mm | - | 193 W/m² | - |
| 1787578314 | 26.67° C | 69% | 1052 hPa | 0 mm | - | 198 W/m² | - |
| 1787578010 | 26.67° C | 71% | 1052.5 hPa | 0 mm | - | 322 W/m² | - |
| 1787577705 | 26.11° C | 71% | 1052.3 hPa | 0 mm | - | 254 W/m² | - |
* Rain latest hour (hover to see other rain measurements)
** Current wind speed in m/s (hover to see current wind gust speed)